BEL26C EBBR-LFBO
Flight info
| Callsign | BEL26C |
|---|---|
| Flight time | 1h 21m |
| Altitude | 33000 |
| Route | CIV N872 LESDO DCT KOVIN DCT DUCRA UM728 RESMI UN857 DISAK/N0452F350 DCT DIRMO DCT GUERE DCT EVPOK DCT NARAK |
| Aircraft | A319/M-SDE3FGHIRWY/LB1 |
Departure
| Time | 2026-05-04 18:35 |
|---|---|
| Airport | Brussels Airport (EBBR) |
Arrival
| Time | 2026-05-04 19:56 |
|---|---|
| Airport | Toulouse-Blagnac Airport (LFBO) |
| Time | Latitude | Longitude | Altitude | Speed | Heading |
|---|---|---|---|---|---|
| 2026-05-04 17:56 | 50.90371 | 4.48486 | 118 ft | 0 kts | 155° |
| 2026-05-04 18:24 | 50.90387 | 4.48475 | 117 ft | 4 kts | 155° |
| 2026-05-04 18:24 | 50.90409 | 4.48455 | 116 ft | 4 kts | 128° |
| 2026-05-04 18:25 | 50.90415 | 4.48433 | 116 ft | 0 kts | 65° |
| 2026-05-04 18:28 | 50.90415 | 4.48434 | 116 ft | 0 kts | 65° |
| 2026-05-04 18:28 | 50.90420 | 4.48441 | 116 ft | 2 kts | 39° |
| 2026-05-04 18:29 | 50.90443 | 4.48468 | 118 ft | 7 kts | 36° |
| 2026-05-04 18:29 | 50.90489 | 4.48529 | 119 ft | 9 kts | 55° |
| 2026-05-04 18:29 | 50.90517 | 4.48628 | 119 ft | 10 kts | 66° |
| 2026-05-04 18:29 | 50.90548 | 4.48738 | 118 ft | 12 kts | 65° |
| 2026-05-04 18:30 | 50.90609 | 4.48947 | 121 ft | 13 kts | 65° |
| 2026-05-04 18:30 | 50.90648 | 4.49085 | 119 ft | 14 kts | 66° |
| 2026-05-04 18:30 | 50.90687 | 4.49224 | 119 ft | 14 kts | 66° |
| 2026-05-04 18:31 | 50.90728 | 4.49360 | 123 ft | 13 kts | 63° |
| 2026-05-04 18:31 | 50.90767 | 4.49493 | 123 ft | 13 kts | 67° |
| 2026-05-04 18:31 | 50.90804 | 4.49624 | 120 ft | 13 kts | 65° |
| 2026-05-04 18:31 | 50.90849 | 4.49743 | 124 ft | 12 kts | 35° |
| 2026-05-04 18:32 | 50.90926 | 4.49792 | 119 ft | 12 kts | 27° |
| 2026-05-04 18:32 | 50.90965 | 4.49840 | 120 ft | 0 kts | 40° |
| 2026-05-04 18:33 | 50.90971 | 4.49847 | 122 ft | 2 kts | 40° |
| 2026-05-04 18:33 | 50.90992 | 4.49873 | 120 ft | 6 kts | 33° |
| 2026-05-04 18:33 | 50.91044 | 4.49913 | 120 ft | 10 kts | 24° |
| 2026-05-04 18:33 | 50.91112 | 4.49935 | 120 ft | 10 kts | 342° |
| 2026-05-04 18:34 | 50.91127 | 4.49848 | 117 ft | 9 kts | 249° |
| 2026-05-04 18:34 | 50.91095 | 4.49737 | 118 ft | 18 kts | 245° |
| 2026-05-04 18:34 | 50.90927 | 4.49163 | 117 ft | 97 kts | 245° |
| 2026-05-04 18:34 | 50.90547 | 4.47860 | 121 ft | 160 kts | 244° |
| 2026-05-04 18:35 | 50.90068 | 4.46199 | 701 ft | 165 kts | 245° |
| 2026-05-04 18:35 | 50.89599 | 4.44524 | 1448 ft | 167 kts | 247° |
| 2026-05-04 18:35 | 50.89195 | 4.42771 | 2101 ft | 175 kts | 253° |
| 2026-05-04 18:35 | 50.88822 | 4.40807 | 2529 ft | 197 kts | 254° |
| 2026-05-04 18:36 | 50.88412 | 4.38606 | 2933 ft | 220 kts | 254° |
| 2026-05-04 18:36 | 50.87689 | 4.36351 | 3382 ft | 244 kts | 228° |
| 2026-05-04 18:36 | 50.86235 | 4.34758 | 4002 ft | 265 kts | 206° |
| 2026-05-04 18:36 | 50.84565 | 4.33430 | 5001 ft | 271 kts | 206° |
| 2026-05-04 18:37 | 50.82862 | 4.32081 | 6030 ft | 275 kts | 206° |
| 2026-05-04 18:37 | 50.81133 | 4.30705 | 7025 ft | 280 kts | 207° |
| 2026-05-04 18:37 | 50.79386 | 4.29292 | 7982 ft | 284 kts | 209° |
| 2026-05-04 18:37 | 50.77782 | 4.27435 | 8932 ft | 289 kts | 224° |
| 2026-05-04 18:38 | 50.76489 | 4.24985 | 9906 ft | 292 kts | 236° |
| 2026-05-04 18:38 | 50.75286 | 4.22309 | 10483 ft | 310 kts | 235° |
| 2026-05-04 18:38 | 50.73983 | 4.19432 | 10825 ft | 334 kts | 235° |
| 2026-05-04 18:38 | 50.72592 | 4.16374 | 11333 ft | 349 kts | 235° |
| 2026-05-04 18:39 | 50.71159 | 4.13241 | 12086 ft | 355 kts | 235° |
| 2026-05-04 18:39 | 50.69703 | 4.10061 | 12905 ft | 360 kts | 235° |
| 2026-05-04 18:39 | 50.68231 | 4.06844 | 13722 ft | 364 kts | 235° |
| 2026-05-04 18:39 | 50.66739 | 4.03588 | 14440 ft | 368 kts | 234° |
| 2026-05-04 18:40 | 50.65228 | 4.00298 | 15146 ft | 372 kts | 234° |
| 2026-05-04 18:40 | 50.63700 | 3.96978 | 15855 ft | 376 kts | 234° |
| 2026-05-04 18:40 | 50.62154 | 3.93622 | 16560 ft | 380 kts | 234° |
| 2026-05-04 18:40 | 50.60595 | 3.90234 | 17271 ft | 384 kts | 234° |
| 2026-05-04 18:41 | 50.58983 | 3.86863 | 17968 ft | 388 kts | 229° |
| 2026-05-04 18:41 | 50.57037 | 3.83903 | 18612 ft | 391 kts | 218° |
| 2026-05-04 18:41 | 50.54761 | 3.81554 | 19241 ft | 393 kts | 207° |
| 2026-05-04 18:41 | 50.52266 | 3.79780 | 19883 ft | 395 kts | 202° |
| 2026-05-04 18:42 | 50.49731 | 3.78063 | 20531 ft | 398 kts | 203° |
| 2026-05-04 18:42 | 50.47184 | 3.76329 | 21170 ft | 400 kts | 203° |
| 2026-05-04 18:42 | 50.44618 | 3.74577 | 21776 ft | 403 kts | 203° |
| 2026-05-04 18:42 | 50.42039 | 3.72819 | 22363 ft | 406 kts | 203° |
| 2026-05-04 18:43 | 50.39440 | 3.71049 | 22944 ft | 409 kts | 203° |
| 2026-05-04 18:43 | 50.36817 | 3.69264 | 23483 ft | 412 kts | 203° |
| 2026-05-04 18:43 | 50.34172 | 3.67465 | 23957 ft | 415 kts | 204° |
| 2026-05-04 18:43 | 50.31517 | 3.65665 | 24430 ft | 417 kts | 203° |
| 2026-05-04 18:44 | 50.28848 | 3.63862 | 24909 ft | 419 kts | 204° |
| 2026-05-04 18:44 | 50.27071 | 3.62663 | 25225 ft | 420 kts | 204° |
| 2026-05-04 18:44 | 50.23475 | 3.60241 | 25888 ft | 422 kts | 204° |
| 2026-05-04 18:44 | 50.20779 | 3.58431 | 26373 ft | 423 kts | 203° |
| 2026-05-04 18:45 | 50.18067 | 3.56613 | 26861 ft | 425 kts | 203° |
| 2026-05-04 18:45 | 50.15348 | 3.54794 | 27341 ft | 426 kts | 203° |
| 2026-05-04 18:45 | 50.12622 | 3.52969 | 27816 ft | 427 kts | 203° |
| 2026-05-04 18:45 | 50.09889 | 3.51139 | 28285 ft | 428 kts | 203° |
| 2026-05-04 18:46 | 50.07149 | 3.49307 | 28727 ft | 430 kts | 203° |
| 2026-05-04 18:46 | 50.04394 | 3.47465 | 29160 ft | 431 kts | 203° |
| 2026-05-04 18:46 | 50.01638 | 3.45621 | 29589 ft | 432 kts | 203° |
| 2026-05-04 18:46 | 49.98870 | 3.43768 | 30006 ft | 434 kts | 203° |
| 2026-05-04 18:47 | 49.96089 | 3.41914 | 30334 ft | 436 kts | 203° |
| 2026-05-04 18:47 | 49.93302 | 3.40063 | 30726 ft | 436 kts | 203° |
| 2026-05-04 18:47 | 49.90522 | 3.38221 | 31227 ft | 433 kts | 203° |
| 2026-05-04 18:47 | 49.87758 | 3.36391 | 31733 ft | 430 kts | 203° |
| 2026-05-04 18:48 | 49.85011 | 3.34570 | 32244 ft | 428 kts | 203° |
| 2026-05-04 18:48 | 49.82281 | 3.32756 | 32736 ft | 426 kts | 203° |
| 2026-05-04 18:48 | 49.79561 | 3.30950 | 32910 ft | 424 kts | 203° |
| 2026-05-04 18:49 | 49.74176 | 3.27396 | 32936 ft | 418 kts | 203° |
| 2026-05-04 18:49 | 49.68829 | 3.23883 | 32943 ft | 417 kts | 203° |
| 2026-05-04 18:50 | 49.63481 | 3.20376 | 32933 ft | 417 kts | 203° |
| 2026-05-04 18:50 | 49.58140 | 3.16878 | 32933 ft | 417 kts | 203° |
| 2026-05-04 18:51 | 49.52801 | 3.13394 | 32941 ft | 417 kts | 204° |
| 2026-05-04 18:51 | 49.47565 | 3.09598 | 32945 ft | 416 kts | 212° |
| 2026-05-04 18:52 | 49.42734 | 3.04681 | 32945 ft | 416 kts | 213° |
| 2026-05-04 18:52 | 49.37904 | 2.99775 | 32938 ft | 416 kts | 213° |
| 2026-05-04 18:53 | 49.33077 | 2.94887 | 32950 ft | 416 kts | 213° |
| 2026-05-04 18:53 | 49.28251 | 2.90014 | 32950 ft | 415 kts | 213° |
| 2026-05-04 18:54 | 49.23572 | 2.85307 | 32948 ft | 414 kts | 213° |
| 2026-05-04 18:54 | 49.19107 | 2.80807 | 32946 ft | 414 kts | 213° |
| 2026-05-04 18:55 | 49.14297 | 2.75977 | 32941 ft | 413 kts | 213° |
| 2026-05-04 18:55 | 49.07089 | 2.68758 | 32953 ft | 413 kts | 213° |
| 2026-05-04 18:56 | 49.02317 | 2.63996 | 32953 ft | 413 kts | 213° |
| 2026-05-04 18:56 | 48.97509 | 2.59223 | 32947 ft | 412 kts | 213° |
| 2026-05-04 18:57 | 48.92703 | 2.54448 | 32949 ft | 412 kts | 213° |
| 2026-05-04 18:57 | 48.87911 | 2.49694 | 32958 ft | 412 kts | 213° |
| 2026-05-04 18:58 | 48.83113 | 2.44944 | 32958 ft | 411 kts | 213° |
| 2026-05-04 18:58 | 48.78326 | 2.40223 | 32964 ft | 410 kts | 213° |
| 2026-05-04 18:59 | 48.73538 | 2.35517 | 32962 ft | 410 kts | 213° |
| 2026-05-04 18:59 | 48.68750 | 2.30822 | 32966 ft | 410 kts | 213° |
| 2026-05-04 19:00 | 48.63966 | 2.26136 | 32962 ft | 409 kts | 213° |
| 2026-05-04 19:00 | 48.59188 | 2.21467 | 32952 ft | 409 kts | 212° |
| 2026-05-04 19:01 | 48.53934 | 2.18239 | 32958 ft | 411 kts | 194° |
| 2026-05-04 19:01 | 48.48351 | 2.16438 | 32952 ft | 410 kts | 194° |
| 2026-05-04 19:02 | 48.42772 | 2.14644 | 32948 ft | 409 kts | 194° |
| 2026-05-04 19:02 | 48.37210 | 2.12852 | 32944 ft | 408 kts | 194° |
| 2026-05-04 19:03 | 48.31660 | 2.11066 | 32943 ft | 407 kts | 193° |
| 2026-05-04 19:03 | 48.26007 | 2.10498 | 32939 ft | 411 kts | 177° |
| 2026-05-04 19:04 | 48.20343 | 2.11694 | 32941 ft | 411 kts | 175° |
| 2026-05-04 19:04 | 48.14678 | 2.12894 | 32935 ft | 410 kts | 175° |
| 2026-05-04 19:05 | 48.09021 | 2.13432 | 32946 ft | 407 kts | 180° |
| 2026-05-04 19:05 | 48.03368 | 2.13747 | 32950 ft | 406 kts | 180° |
| 2026-05-04 19:06 | 47.97760 | 2.14083 | 32947 ft | 406 kts | 180° |
| 2026-05-04 19:06 | 47.92090 | 2.14423 | 32937 ft | 405 kts | 180° |
| 2026-05-04 19:07 | 47.86490 | 2.14734 | 32940 ft | 405 kts | 182° |
| 2026-05-04 19:07 | 47.80890 | 2.14215 | 32936 ft | 403 kts | 186° |
| 2026-05-04 19:08 | 47.75301 | 2.13517 | 32927 ft | 403 kts | 187° |
| 2026-05-04 19:08 | 47.69714 | 2.12815 | 32921 ft | 403 kts | 186° |
| 2026-05-04 19:09 | 47.64122 | 2.12151 | 32913 ft | 403 kts | 186° |
| 2026-05-04 19:09 | 47.58534 | 2.11499 | 32907 ft | 403 kts | 186° |
| 2026-05-04 19:10 | 47.54793 | 2.11057 | 32893 ft | 403 kts | 186° |
| 2026-05-04 19:10 | 47.48262 | 2.10281 | 32900 ft | 403 kts | 186° |
| 2026-05-04 19:11 | 47.42713 | 2.09620 | 32903 ft | 403 kts | 186° |
| 2026-05-04 19:11 | 47.37125 | 2.08966 | 32905 ft | 402 kts | 186° |
| 2026-05-04 19:12 | 47.28756 | 2.07999 | 32906 ft | 402 kts | 186° |
| 2026-05-04 19:13 | 47.23186 | 2.07351 | 32904 ft | 402 kts | 186° |
| 2026-05-04 19:13 | 47.17612 | 2.06708 | 32905 ft | 401 kts | 186° |
| 2026-05-04 19:14 | 47.12051 | 2.06060 | 32907 ft | 401 kts | 186° |
| 2026-05-04 19:14 | 47.06495 | 2.05412 | 32901 ft | 400 kts | 186° |
| 2026-05-04 19:15 | 47.00942 | 2.04767 | 32905 ft | 400 kts | 186° |
| 2026-05-04 19:15 | 46.95394 | 2.04123 | 32903 ft | 400 kts | 186° |
| 2026-05-04 19:16 | 46.89846 | 2.03489 | 32905 ft | 399 kts | 186° |
| 2026-05-04 19:16 | 46.84307 | 2.02857 | 32906 ft | 399 kts | 186° |
| 2026-05-04 19:17 | 46.78771 | 2.02221 | 32906 ft | 399 kts | 186° |
| 2026-05-04 19:17 | 46.73245 | 2.01581 | 32902 ft | 398 kts | 186° |
| 2026-05-04 19:18 | 46.67721 | 2.00942 | 32900 ft | 398 kts | 186° |
| 2026-05-04 19:18 | 46.62196 | 2.00312 | 32899 ft | 398 kts | 186° |
| 2026-05-04 19:19 | 46.56672 | 1.99690 | 32901 ft | 398 kts | 186° |
| 2026-05-04 19:19 | 46.51156 | 1.99071 | 32896 ft | 398 kts | 186° |
| 2026-05-04 19:20 | 46.45645 | 1.98444 | 32900 ft | 397 kts | 186° |
| 2026-05-04 19:20 | 46.40132 | 1.97810 | 32900 ft | 397 kts | 186° |
| 2026-05-04 19:21 | 46.34624 | 1.97189 | 32898 ft | 397 kts | 186° |
| 2026-05-04 19:21 | 46.29116 | 1.96575 | 32898 ft | 397 kts | 186° |
| 2026-05-04 19:22 | 46.23618 | 1.95955 | 32900 ft | 397 kts | 186° |
| 2026-05-04 19:22 | 46.18111 | 1.95335 | 32902 ft | 396 kts | 186° |
| 2026-05-04 19:23 | 46.12615 | 1.94726 | 32899 ft | 396 kts | 186° |
| 2026-05-04 19:23 | 46.07118 | 1.94107 | 32903 ft | 396 kts | 186° |
| 2026-05-04 19:24 | 46.01630 | 1.93494 | 32907 ft | 396 kts | 186° |
| 2026-05-04 19:24 | 45.96136 | 1.92888 | 32906 ft | 396 kts | 186° |
| 2026-05-04 19:25 | 45.90643 | 1.92283 | 32911 ft | 396 kts | 186° |
| 2026-05-04 19:25 | 45.85157 | 1.91672 | 32912 ft | 395 kts | 186° |
| 2026-05-04 19:26 | 45.79667 | 1.91060 | 32914 ft | 396 kts | 186° |
| 2026-05-04 19:26 | 45.74184 | 1.90440 | 32914 ft | 395 kts | 185° |
| 2026-05-04 19:27 | 45.68698 | 1.89831 | 32911 ft | 395 kts | 185° |
| 2026-05-04 19:27 | 45.63211 | 1.89237 | 32909 ft | 395 kts | 185° |
| 2026-05-04 19:28 | 45.57727 | 1.88640 | 32913 ft | 395 kts | 185° |
| 2026-05-04 19:28 | 45.52247 | 1.88042 | 32915 ft | 395 kts | 185° |
| 2026-05-04 19:29 | 45.46766 | 1.87445 | 32915 ft | 395 kts | 185° |
| 2026-05-04 19:29 | 45.41284 | 1.86842 | 32914 ft | 395 kts | 185° |
| 2026-05-04 19:30 | 45.35805 | 1.86240 | 32913 ft | 395 kts | 185° |
| 2026-05-04 19:30 | 45.30327 | 1.85641 | 32923 ft | 395 kts | 185° |
| 2026-05-04 19:31 | 45.24851 | 1.85047 | 32920 ft | 395 kts | 185° |
| 2026-05-04 19:31 | 45.19372 | 1.84458 | 32920 ft | 395 kts | 185° |
| 2026-05-04 19:32 | 45.13893 | 1.83872 | 32918 ft | 395 kts | 185° |
| 2026-05-04 19:32 | 45.08417 | 1.83287 | 32925 ft | 395 kts | 185° |
| 2026-05-04 19:33 | 45.02944 | 1.82693 | 32923 ft | 395 kts | 185° |
| 2026-05-04 19:33 | 44.97463 | 1.82102 | 32922 ft | 394 kts | 185° |
| 2026-05-04 19:33 | 44.94717 | 1.81808 | 32703 ft | 396 kts | 185° |
| 2026-05-04 19:34 | 44.91968 | 1.81511 | 32437 ft | 397 kts | 185° |
| 2026-05-04 19:34 | 44.89203 | 1.81212 | 32174 ft | 399 kts | 184° |
| 2026-05-04 19:34 | 44.86427 | 1.80913 | 31915 ft | 401 kts | 184° |
| 2026-05-04 19:34 | 44.83642 | 1.80614 | 31651 ft | 403 kts | 184° |
| 2026-05-04 19:35 | 44.80842 | 1.80313 | 31394 ft | 404 kts | 184° |
| 2026-05-04 19:35 | 44.78033 | 1.80012 | 30874 ft | 405 kts | 184° |
| 2026-05-04 19:35 | 44.75232 | 1.79714 | 29774 ft | 401 kts | 183° |
| 2026-05-04 19:35 | 44.72421 | 1.79415 | 28556 ft | 397 kts | 184° |
| 2026-05-04 19:36 | 44.69693 | 1.79125 | 27758 ft | 387 kts | 184° |
| 2026-05-04 19:36 | 44.67046 | 1.78844 | 27156 ft | 388 kts | 184° |
| 2026-05-04 19:36 | 44.64365 | 1.78559 | 26517 ft | 385 kts | 184° |
| 2026-05-04 19:36 | 44.61708 | 1.78280 | 25890 ft | 382 kts | 184° |
| 2026-05-04 19:37 | 44.59070 | 1.78004 | 25273 ft | 379 kts | 184° |
| 2026-05-04 19:37 | 44.56449 | 1.77729 | 24660 ft | 376 kts | 184° |
| 2026-05-04 19:37 | 44.53842 | 1.77453 | 24047 ft | 375 kts | 184° |
| 2026-05-04 19:37 | 44.51239 | 1.77176 | 23434 ft | 374 kts | 184° |
| 2026-05-04 19:38 | 44.48650 | 1.76902 | 22782 ft | 372 kts | 184° |
| 2026-05-04 19:38 | 44.46081 | 1.76631 | 22227 ft | 369 kts | 184° |
| 2026-05-04 19:38 | 44.43525 | 1.76361 | 21677 ft | 367 kts | 184° |
| 2026-05-04 19:38 | 44.40990 | 1.76092 | 21161 ft | 365 kts | 184° |
| 2026-05-04 19:39 | 44.38466 | 1.75824 | 20649 ft | 362 kts | 184° |
| 2026-05-04 19:39 | 44.35968 | 1.75565 | 20167 ft | 359 kts | 184° |
| 2026-05-04 19:39 | 44.33484 | 1.75310 | 19682 ft | 356 kts | 185° |
| 2026-05-04 19:39 | 44.31048 | 1.74828 | 19223 ft | 353 kts | 193° |
| 2026-05-04 19:40 | 44.28728 | 1.73735 | 18769 ft | 356 kts | 204° |
| 2026-05-04 19:40 | 44.26518 | 1.72006 | 18323 ft | 370 kts | 213° |
| 2026-05-04 19:40 | 44.24400 | 1.69956 | 17818 ft | 371 kts | 214° |
| 2026-05-04 19:40 | 44.22281 | 1.67918 | 17361 ft | 369 kts | 214° |
| 2026-05-04 19:41 | 44.20171 | 1.65899 | 16909 ft | 367 kts | 214° |
| 2026-05-04 19:41 | 44.18068 | 1.63892 | 16451 ft | 365 kts | 214° |
| 2026-05-04 19:41 | 44.15974 | 1.61897 | 16001 ft | 364 kts | 214° |
| 2026-05-04 19:41 | 44.13887 | 1.59911 | 15549 ft | 362 kts | 214° |
| 2026-05-04 19:42 | 44.11819 | 1.57945 | 15104 ft | 359 kts | 214° |
| 2026-05-04 19:42 | 44.09761 | 1.55987 | 14659 ft | 358 kts | 214° |
| 2026-05-04 19:42 | 44.07707 | 1.54030 | 14214 ft | 357 kts | 214° |
| 2026-05-04 19:42 | 44.05664 | 1.52086 | 13772 ft | 355 kts | 215° |
| 2026-05-04 19:43 | 44.03631 | 1.50156 | 13307 ft | 353 kts | 215° |
| 2026-05-04 19:43 | 44.01603 | 1.48232 | 12861 ft | 352 kts | 215° |
| 2026-05-04 19:43 | 43.99567 | 1.46354 | 12421 ft | 351 kts | 211° |
| 2026-05-04 19:43 | 43.97345 | 1.44956 | 12037 ft | 350 kts | 199° |
| 2026-05-04 19:44 | 43.94967 | 1.44202 | 11949 ft | 351 kts | 191° |
| 2026-05-04 19:44 | 43.92549 | 1.43643 | 11932 ft | 352 kts | 191° |
| 2026-05-04 19:44 | 43.90152 | 1.43073 | 11035 ft | 348 kts | 191° |
| 2026-05-04 19:44 | 43.87831 | 1.42516 | 10731 ft | 326 kts | 191° |
| 2026-05-04 19:45 | 43.85675 | 1.42043 | 10599 ft | 302 kts | 187° |
| 2026-05-04 19:45 | 43.83626 | 1.42115 | 10225 ft | 293 kts | 173° |
| 2026-05-04 19:45 | 43.81669 | 1.42882 | 9964 ft | 292 kts | 159° |
| 2026-05-04 19:45 | 43.79901 | 1.44270 | 9821 ft | 295 kts | 145° |
| 2026-05-04 19:46 | 43.78281 | 1.46011 | 9692 ft | 295 kts | 143° |
| 2026-05-04 19:46 | 43.76662 | 1.47758 | 9555 ft | 295 kts | 143° |
| 2026-05-04 19:46 | 43.75045 | 1.49500 | 9309 ft | 294 kts | 143° |
| 2026-05-04 19:46 | 43.73431 | 1.51239 | 8986 ft | 293 kts | 144° |
| 2026-05-04 19:47 | 43.71823 | 1.52968 | 8637 ft | 292 kts | 144° |
| 2026-05-04 19:47 | 43.70228 | 1.54682 | 8286 ft | 291 kts | 143° |
| 2026-05-04 19:47 | 43.68633 | 1.56395 | 7939 ft | 290 kts | 143° |
| 2026-05-04 19:47 | 43.67042 | 1.58100 | 7582 ft | 289 kts | 143° |
| 2026-05-04 19:48 | 43.65461 | 1.59790 | 7298 ft | 284 kts | 143° |
| 2026-05-04 19:48 | 43.64429 | 1.60895 | 7205 ft | 271 kts | 143° |
| 2026-05-04 19:48 | 43.62898 | 1.62246 | 6955 ft | 255 kts | 157° |
| 2026-05-04 19:48 | 43.61246 | 1.62983 | 6528 ft | 248 kts | 172° |
| 2026-05-04 19:49 | 43.59539 | 1.63129 | 6193 ft | 244 kts | 187° |
| 2026-05-04 19:49 | 43.57849 | 1.62854 | 6109 ft | 245 kts | 190° |
| 2026-05-04 19:49 | 43.56174 | 1.62576 | 5998 ft | 246 kts | 189° |
| 2026-05-04 19:49 | 43.54475 | 1.62299 | 5827 ft | 246 kts | 189° |
| 2026-05-04 19:50 | 43.52771 | 1.62021 | 5436 ft | 248 kts | 189° |
| 2026-05-04 19:50 | 43.51064 | 1.61733 | 5086 ft | 246 kts | 192° |
| 2026-05-04 19:50 | 43.49516 | 1.60957 | 4912 ft | 227 kts | 216° |
| 2026-05-04 19:50 | 43.48392 | 1.59598 | 4779 ft | 206 kts | 236° |
| 2026-05-04 19:51 | 43.47724 | 1.57967 | 4641 ft | 188 kts | 255° |
| 2026-05-04 19:51 | 43.47404 | 1.56239 | 4292 ft | 188 kts | 261° |
| 2026-05-04 19:51 | 43.47238 | 1.54506 | 4120 ft | 177 kts | 275° |
| 2026-05-04 19:51 | 43.47515 | 1.52858 | 4137 ft | 180 kts | 294° |
| 2026-05-04 19:52 | 43.48208 | 1.51452 | 3887 ft | 178 kts | 314° |
| 2026-05-04 19:52 | 43.49176 | 1.50401 | 3645 ft | 177 kts | 322° |
| 2026-05-04 19:52 | 43.50161 | 1.49384 | 3424 ft | 177 kts | 321° |
| 2026-05-04 19:52 | 43.51141 | 1.48371 | 3194 ft | 176 kts | 321° |
| 2026-05-04 19:53 | 43.52114 | 1.47364 | 2950 ft | 175 kts | 321° |
| 2026-05-04 19:53 | 43.53084 | 1.46360 | 2714 ft | 173 kts | 321° |
| 2026-05-04 19:53 | 43.54046 | 1.45363 | 2481 ft | 173 kts | 321° |
| 2026-05-04 19:53 | 43.54973 | 1.44404 | 2253 ft | 158 kts | 320° |
| 2026-05-04 19:54 | 43.55779 | 1.43569 | 2050 ft | 134 kts | 320° |
| 2026-05-04 19:54 | 43.56493 | 1.42828 | 1885 ft | 125 kts | 319° |
| 2026-05-04 19:54 | 43.57179 | 1.42115 | 1726 ft | 122 kts | 319° |
| 2026-05-04 19:54 | 43.57850 | 1.41417 | 1552 ft | 121 kts | 319° |
| 2026-05-04 19:55 | 43.58519 | 1.40726 | 1403 ft | 120 kts | 318° |
| 2026-05-04 19:55 | 43.59186 | 1.40034 | 1180 ft | 120 kts | 320° |
| 2026-05-04 19:55 | 43.59855 | 1.39343 | 1011 ft | 123 kts | 319° |
| 2026-05-04 19:55 | 43.60531 | 1.38640 | 841 ft | 121 kts | 319° |
| 2026-05-04 19:56 | 43.61202 | 1.37944 | 702 ft | 120 kts | 319° |
| 2026-05-04 19:56 | 43.61868 | 1.37252 | 568 ft | 120 kts | 319° |
| 2026-05-04 19:56 | 43.62496 | 1.36584 | 504 ft | 95 kts | 323° |
| 2026-05-04 19:56 | 43.62890 | 1.36175 | 499 ft | 46 kts | 323° |
| 2026-05-04 19:57 | 43.63088 | 1.35971 | 500 ft | 33 kts | 322° |
| 2026-05-04 19:57 | 43.63258 | 1.35791 | 501 ft | 30 kts | 322° |
| 2026-05-04 19:57 | 43.63422 | 1.35621 | 501 ft | 29 kts | 323° |
| 2026-05-04 19:57 | 43.63535 | 1.35507 | 499 ft | 12 kts | 332° |
| 2026-05-04 19:58 | 43.63603 | 1.35543 | 500 ft | 12 kts | 51° |
| 2026-05-04 19:58 | 43.63656 | 1.35640 | 495 ft | 14 kts | 53° |
| 2026-05-04 19:58 | 43.63715 | 1.35749 | 499 ft | 14 kts | 53° |
| 2026-05-04 19:58 | 43.63777 | 1.35860 | 499 ft | 15 kts | 52° |
| 2026-05-04 19:59 | 43.63816 | 1.35963 | 495 ft | 12 kts | 89° |
| 2026-05-04 19:59 | 43.63767 | 1.36045 | 499 ft | 12 kts | 143° |
| 2026-05-04 19:59 | 43.63700 | 1.36114 | 499 ft | 12 kts | 142° |
| 2026-05-04 19:59 | 43.63628 | 1.36188 | 499 ft | 13 kts | 143° |
| 2026-05-04 20:00 | 43.63552 | 1.36267 | 500 ft | 14 kts | 143° |
| 2026-05-04 20:00 | 43.63529 | 1.36291 | 500 ft | 0 kts | 144° |
| 2026-05-04 20:00 | 43.63520 | 1.36300 | 500 ft | 4 kts | 142° |
| 2026-05-04 20:00 | 43.63477 | 1.36345 | 500 ft | 11 kts | 142° |
| 2026-05-04 20:01 | 43.63412 | 1.36415 | 500 ft | 12 kts | 142° |
| 2026-05-04 20:01 | 43.63341 | 1.36489 | 500 ft | 13 kts | 143° |
| 2026-05-04 20:01 | 43.63265 | 1.36566 | 501 ft | 14 kts | 143° |
| 2026-05-04 20:01 | 43.63186 | 1.36648 | 501 ft | 15 kts | 143° |
| 2026-05-04 20:02 | 43.63112 | 1.36723 | 501 ft | 13 kts | 143° |
| 2026-05-04 20:02 | 43.63039 | 1.36801 | 502 ft | 14 kts | 142° |
| 2026-05-04 20:02 | 43.62965 | 1.36880 | 502 ft | 10 kts | 136° |
| 2026-05-04 20:02 | 43.62963 | 1.36973 | 502 ft | 11 kts | 59° |
| 2026-05-04 20:03 | 43.63010 | 1.37060 | 502 ft | 12 kts | 56° |
| 2026-05-04 20:03 | 43.63002 | 1.37144 | 502 ft | 4 kts | 117° |
| 2026-05-04 20:03 | 43.63012 | 1.37180 | 502 ft | 5 kts | 67° |
| 2026-05-04 20:03 | 43.63025 | 1.37227 | 502 ft | 6 kts | 70° |
| 2026-05-04 20:04 | 43.63031 | 1.37248 | 502 ft | 0 kts | 70° |
| 2026-05-04 20:04 | 43.63031 | 1.37249 | 502 ft | 0 kts | 69° |